Detall de PIREP

Printer-friendly versionPDF version

[2013/12/10 09:05:00]
Flight IATA:CT1005
Pilot Number:011
Company ICAO:CAT
Aircraft Type:B738/F
PAX:160
Departing Airport: EDSB
Destination Airport: LOWW
Alternate Airport:LZIB
Online: VATSIM
Route:GAGSI Y712 GUPIN L173 RIDAR UZ98 MIQ UL605 EGG Q104 FRE Q105 VENEN
Flight Level:F330
No Slew and time accel
No pause
Crash detect
Detect pilot in Cockpit between each 30 and 45 minutes
09:05 Zero fuel Weight: 136265 Lbs, Fuel Weight: 13818 Lbs
09:05 VATSIM:EDSB 100850Z 20002KT 0650 R21/0800 FZFG VV/// M02/M03 Q1035
09:05 VATSIM:LOWW 100850Z 03006KT 9000 FEW008 BKN012 BKN016 05/04 Q1035 WS ALL RWY NOSIG
09:10 Parking Brakes off
09:21 Take-off
09:21 Take off Weight: 150060 Lbs
09:21 Wind: 201º @ 002 Knots Heading: 211º
09:21 POS N48º 46´ 41´´ E008º 04´ 46´´
09:21 Flaps:5 at 163 Knots
09:21 Gear Up: 164 Knots
09:22 Flaps:4 at 205 Knots
09:22 Flaps:3 at 219 Knots
09:22 Flaps:2 at 227 Knots
09:22 Flaps:1 at 228 Knots
09:22 Flaps:0 at 230 Knots
09:36 Wind:122º@007 Knots Heading: 093º Ground Speed: 398 Knots Altitude 30291 ft
09:38 TOC
09:38 Fuel Weight: 9405 Lb
09:51 Wind:132º@009 Knots Heading: 100º Ground Speed: 436 Knots Altitude 33645 ft
10:01 TOD
10:01 Fuel Weight: 7302 Lb
10:06 Wind:338º@008 Knots Heading: 099º Ground Speed: 391 Knots Altitude 24498 ft
10:21 Wind:339º@017 Knots Heading: 137º Ground Speed: 281 Knots Altitude 6079 ft
10:24 Flaps:1 at 265 Knots
10:24 Flaps:2 at 260 Knots
10:25 Flaps:3 at 219 Knots
10:26 Flaps:4 at 209 Knots
10:26 Flaps:5 at 192 Knots
10:27 Flaps:6 at 187 Knots
10:27 Gear Down: 180 Knots
10:27 Flaps:7 at 174 Knots
10:28 Flaps:8 at 166 Knots
10:31 TouchDown:Rate -218 ft/min Speed: 129 Knots
10:31 VATSIM:LOWW 101020Z 36004KT 340V050 9999 FEW008 SCT013 BKN015 05/03 Q1036 TEMPO BKN013
10:31 Land
10:31 Wind:182º@000 Knots
10:31 Heading: 344º
10:31 Flight Duration: 01:10
10:31 Landing Weight: 141637 Lbs
10:31 POS N48º 06´ 19´´ E016º 35´ 03´´
10:32 Parking brakes on
10:32 Block to Block Duration: 01:22
10:32 Final Fuel: 5553 Lbls
10:32 Spent Fuel: 8265 Lbls
10:32 Flight Length: 412 NM
10:32 TOD Land Length: 153 NM

Exportar CSV

Powered by Drupal - Modified by Danger4k